sensor_id;sensor_type;location;lat;lon;timestamp;P1;durP1;ratioP1;P2;durP2;ratioP2
59960;SDS011;55902;-37.980;-63.602;2022-09-09T00:12:02;6.70;;;5.00;;
59960;SDS011;55902;-37.980;-63.602;2022-09-09T00:14:55;6.85;;;5.20;;
59960;SDS011;55902;-37.980;-63.602;2022-09-09T00:23:14;4.85;;;3.20;;
59960;SDS011;55902;-37.980;-63.602;2022-09-09T00:25:57;3.85;;;2.70;;
59960;SDS011;55902;-37.980;-63.602;2022-09-09T00:28:43;5.88;;;3.70;;
59960;SDS011;55902;-37.980;-63.602;2022-09-09T00:31:28;8.25;;;3.60;;
59960;SDS011;55902;-37.980;-63.602;2022-09-09T00:34:00;6.10;;;4.57;;
59960;SDS011;55902;-37.980;-63.602;2022-09-09T00:36:41;9.75;;;5.53;;
59960;SDS011;55902;-37.980;-63.602;2022-09-09T00:42:24;12.50;;;7.03;;
59960;SDS011;55902;-37.980;-63.602;2022-09-09T00:45:12;10.55;;;5.82;;
59960;SDS011;55902;-37.980;-63.602;2022-09-09T00:47:56;7.05;;;4.47;;
59960;SDS011;55902;-37.980;-63.602;2022-09-09T00:53:19;8.02;;;3.55;;
59960;SDS011;55902;-37.980;-63.602;2022-09-09T00:58:18;6.13;;;3.50;;
59960;SDS011;55902;-37.980;-63.602;2022-09-09T01:06:10;5.57;;;2.60;;
59960;SDS011;55902;-37.980;-63.602;2022-09-09T01:14:22;5.20;;;3.17;;
59960;SDS011;55902;-37.980;-63.602;2022-09-09T01:16:58;6.18;;;3.30;;
59960;SDS011;55902;-37.980;-63.602;2022-09-09T01:22:19;9.38;;;3.30;;
59960;SDS011;55902;-37.980;-63.602;2022-09-09T01:27:41;6.75;;;3.60;;
59960;SDS011;55902;-37.980;-63.602;2022-09-09T01:30:13;7.55;;;3.40;;
59960;SDS011;55902;-37.980;-63.602;2022-09-09T01:32:43;7.10;;;3.67;;
59960;SDS011;55902;-37.980;-63.602;2022-09-09T01:35:30;6.38;;;3.70;;
59960;SDS011;55902;-37.980;-63.602;2022-09-09T01:38:22;5.68;;;3.50;;
59960;SDS011;55902;-37.980;-63.602;2022-09-09T01:40:51;5.55;;;3.85;;
59960;SDS011;55902;-37.980;-63.602;2022-09-09T01:43:21;8.25;;;3.53;;
59960;SDS011;55902;-37.980;-63.602;2022-09-09T01:45:50;5.53;;;3.15;;
59960;SDS011;55902;-37.980;-63.602;2022-09-09T01:48:21;7.45;;;3.25;;
59960;SDS011;55902;-37.980;-63.602;2022-09-09T01:50:50;5.97;;;2.80;;
59960;SDS011;55902;-37.980;-63.602;2022-09-09T01:53:18;5.88;;;2.90;;
59960;SDS011;55902;-37.980;-63.602;2022-09-09T02:12:39;5.38;;;2.80;;
59960;SDS011;55902;-37.980;-63.602;2022-09-09T02:20:23;3.25;;;2.40;;
59960;SDS011;55902;-37.980;-63.602;2022-09-09T02:22:52;6.00;;;2.60;;
59960;SDS011;55902;-37.980;-63.602;2022-09-09T02:25:26;4.25;;;2.60;;
59960;SDS011;55902;-37.980;-63.602;2022-09-09T02:27:55;5.57;;;2.72;;
59960;SDS011;55902;-37.980;-63.602;2022-09-09T02:30:27;4.53;;;2.60;;
59960;SDS011;55902;-37.980;-63.602;2022-09-09T02:32:56;4.78;;;2.80;;
59960;SDS011;55902;-37.980;-63.602;2022-09-09T02:35:26;4.70;;;2.60;;
59960;SDS011;55902;-37.980;-63.602;2022-09-09T02:37:56;5.00;;;2.63;;
59960;SDS011;55902;-37.980;-63.602;2022-09-09T02:40:28;7.60;;;2.50;;
59960;SDS011;55902;-37.980;-63.602;2022-09-09T02:42:55;3.45;;;2.20;;
59960;SDS011;55902;-37.980;-63.602;2022-09-09T02:45:23;6.45;;;2.80;;
59960;SDS011;55902;-37.980;-63.602;2022-09-09T02:51:04;5.05;;;2.90;;
59960;SDS011;55902;-37.980;-63.602;2022-09-09T02:56:27;5.00;;;3.30;;
59960;SDS011;55902;-37.980;-63.602;2022-09-09T02:58:59;6.00;;;3.38;;
59960;SDS011;55902;-37.980;-63.602;2022-09-09T03:01:28;4.75;;;2.95;;
59960;SDS011;55902;-37.980;-63.602;2022-09-09T03:03:55;4.60;;;2.58;;
59960;SDS011;55902;-37.980;-63.602;2022-09-09T03:06:22;3.58;;;2.50;;
59960;SDS011;55902;-37.980;-63.602;2022-09-09T03:08:49;3.60;;;2.53;;
59960;SDS011;55902;-37.980;-63.602;2022-09-09T03:11:16;4.13;;;2.80;;
59960;SDS011;55902;-37.980;-63.602;2022-09-09T03:13:43;7.43;;;3.55;;
59960;SDS011;55902;-37.980;-63.602;2022-09-09T03:16:10;5.80;;;3.50;;
59960;SDS011;55902;-37.980;-63.602;2022-09-09T03:18:37;4.90;;;2.70;;
59960;SDS011;55902;-37.980;-63.602;2022-09-09T03:21:04;5.53;;;2.65;;
59960;SDS011;55902;-37.980;-63.602;2022-09-09T03:23:32;4.68;;;2.15;;
59960;SDS011;55902;-37.980;-63.602;2022-09-09T03:25:59;4.30;;;2.05;;
59960;SDS011;55902;-37.980;-63.602;2022-09-09T03:28:26;4.93;;;2.17;;
59960;SDS011;55902;-37.980;-63.602;2022-09-09T03:31:03;4.85;;;2.22;;
59960;SDS011;55902;-37.980;-63.602;2022-09-09T03:33:30;5.93;;;2.20;;
59960;SDS011;55902;-37.980;-63.602;2022-09-09T03:35:58;4.45;;;2.22;;
59960;SDS011;55902;-37.980;-63.602;2022-09-09T03:38:25;4.55;;;2.40;;
59960;SDS011;55902;-37.980;-63.602;2022-09-09T03:40:52;7.03;;;2.70;;
59960;SDS011;55902;-37.980;-63.602;2022-09-09T03:43:24;5.95;;;2.40;;
59960;SDS011;55902;-37.980;-63.602;2022-09-09T03:45:52;5.97;;;2.53;;
59960;SDS011;55902;-37.980;-63.602;2022-09-09T03:48:22;3.30;;;2.15;;
59960;SDS011;55902;-37.980;-63.602;2022-09-09T03:50:51;5.85;;;2.30;;
59960;SDS011;55902;-37.980;-63.602;2022-09-09T03:53:19;5.45;;;2.60;;
59960;SDS011;55902;-37.980;-63.602;2022-09-09T03:55:49;6.68;;;2.47;;
59960;SDS011;55902;-37.980;-63.602;2022-09-09T03:58:21;4.82;;;2.63;;
59960;SDS011;55902;-37.980;-63.602;2022-09-09T04:00:59;4.13;;;2.60;;
59960;SDS011;55902;-37.980;-63.602;2022-09-09T04:03:30;6.05;;;2.50;;
59960;SDS011;55902;-37.980;-63.602;2022-09-09T04:05:58;4.70;;;2.50;;
59960;SDS011;55902;-37.980;-63.602;2022-09-09T04:08:27;4.18;;;2.40;;
59960;SDS011;55902;-37.980;-63.602;2022-09-09T04:10:56;5.53;;;2.67;;
59960;SDS011;55902;-37.980;-63.602;2022-09-09T04:13:24;5.13;;;2.60;;
59960;SDS011;55902;-37.980;-63.602;2022-09-09T04:15:52;5.28;;;2.55;;
59960;SDS011;55902;-37.980;-63.602;2022-09-09T04:18:20;6.20;;;2.45;;
59960;SDS011;55902;-37.980;-63.602;2022-09-09T04:20:48;4.78;;;2.50;;
59960;SDS011;55902;-37.980;-63.602;2022-09-09T04:23:16;3.72;;;2.40;;
59960;SDS011;55902;-37.980;-63.602;2022-09-09T04:25:47;6.30;;;2.30;;
59960;SDS011;55902;-37.980;-63.602;2022-09-09T04:28:16;4.60;;;2.60;;
59960;SDS011;55902;-37.980;-63.602;2022-09-09T04:30:44;3.28;;;2.40;;
59960;SDS011;55902;-37.980;-63.602;2022-09-09T04:33:12;5.10;;;2.67;;
59960;SDS011;55902;-37.980;-63.602;2022-09-09T04:39:01;4.80;;;2.60;;
59960;SDS011;55902;-37.980;-63.602;2022-09-09T04:56:38;4.88;;;2.50;;
59960;SDS011;55902;-37.980;-63.602;2022-09-09T04:59:07;5.55;;;2.90;;
59960;SDS011;55902;-37.980;-63.602;2022-09-09T05:01:35;5.15;;;3.15;;
59960;SDS011;55902;-37.980;-63.602;2022-09-09T05:04:02;5.57;;;2.75;;
59960;SDS011;55902;-37.980;-63.602;2022-09-09T05:06:29;5.32;;;2.75;;
59960;SDS011;55902;-37.980;-63.602;2022-09-09T05:08:56;5.47;;;2.50;;
59960;SDS011;55902;-37.980;-63.602;2022-09-09T05:11:25;6.70;;;2.90;;
59960;SDS011;55902;-37.980;-63.602;2022-09-09T05:13:53;4.80;;;2.85;;
59960;SDS011;55902;-37.980;-63.602;2022-09-09T05:16:22;5.65;;;2.90;;
59960;SDS011;55902;-37.980;-63.602;2022-09-09T05:18:49;8.23;;;3.70;;
59960;SDS011;55902;-37.980;-63.602;2022-09-09T05:21:17;14.15;;;4.22;;
59960;SDS011;55902;-37.980;-63.602;2022-09-09T05:23:45;7.78;;;3.70;;
59960;SDS011;55902;-37.980;-63.602;2022-09-09T05:26:13;9.95;;;3.60;;
59960;SDS011;55902;-37.980;-63.602;2022-09-09T05:28:42;8.50;;;3.40;;
59960;SDS011;55902;-37.980;-63.602;2022-09-09T05:31:09;7.15;;;3.50;;
59960;SDS011;55902;-37.980;-63.602;2022-09-09T05:33:38;8.52;;;3.50;;
59960;SDS011;55902;-37.980;-63.602;2022-09-09T05:36:12;5.00;;;3.30;;
59960;SDS011;55902;-37.980;-63.602;2022-09-09T05:38:40;5.18;;;3.33;;
59960;SDS011;55902;-37.980;-63.602;2022-09-09T05:41:08;7.28;;;3.75;;
59960;SDS011;55902;-37.980;-63.602;2022-09-09T05:43:41;10.15;;;3.78;;
59960;SDS011;55902;-37.980;-63.602;2022-09-09T05:52:54;6.95;;;3.38;;
59960;SDS011;55902;-37.980;-63.602;2022-09-09T06:06:25;14.27;;;3.92;;
59960;SDS011;55902;-37.980;-63.602;2022-09-09T06:08:56;8.23;;;3.15;;
59960;SDS011;55902;-37.980;-63.602;2022-09-09T06:11:24;10.90;;;4.00;;
59960;SDS011;55902;-37.980;-63.602;2022-09-09T06:13:53;6.97;;;3.10;;
59960;SDS011;55902;-37.980;-63.602;2022-09-09T06:16:23;10.75;;;3.03;;
59960;SDS011;55902;-37.980;-63.602;2022-09-09T06:18:52;7.18;;;3.10;;
59960;SDS011;55902;-37.980;-63.602;2022-09-09T06:21:25;7.82;;;2.92;;
59960;SDS011;55902;-37.980;-63.602;2022-09-09T06:23:55;6.27;;;2.70;;
59960;SDS011;55902;-37.980;-63.602;2022-09-09T06:26:24;3.55;;;2.50;;
59960;SDS011;55902;-37.980;-63.602;2022-09-09T06:28:53;5.72;;;2.70;;
59960;SDS011;55902;-37.980;-63.602;2022-09-09T06:31:21;8.48;;;2.60;;
59960;SDS011;55902;-37.980;-63.602;2022-09-09T06:33:50;4.57;;;2.60;;
59960;SDS011;55902;-37.980;-63.602;2022-09-09T06:38:46;9.02;;;2.63;;
59960;SDS011;55902;-37.980;-63.602;2022-09-09T06:41:14;4.95;;;2.50;;
59960;SDS011;55902;-37.980;-63.602;2022-09-09T06:43:42;5.28;;;2.60;;
59960;SDS011;55902;-37.980;-63.602;2022-09-09T06:48:40;8.48;;;3.63;;
59960;SDS011;55902;-37.980;-63.602;2022-09-09T06:51:09;9.20;;;3.10;;
59960;SDS011;55902;-37.980;-63.602;2022-09-09T06:53:44;6.35;;;2.85;;
59960;SDS011;55902;-37.980;-63.602;2022-09-09T06:56:19;9.10;;;3.20;;
59960;SDS011;55902;-37.980;-63.602;2022-09-09T06:58:48;7.45;;;3.30;;
59960;SDS011;55902;-37.980;-63.602;2022-09-09T07:01:24;9.57;;;3.60;;
59960;SDS011;55902;-37.980;-63.602;2022-09-09T07:03:53;8.35;;;3.38;;
59960;SDS011;55902;-37.980;-63.602;2022-09-09T07:06:24;13.90;;;3.90;;
59960;SDS011;55902;-37.980;-63.602;2022-09-09T07:08:56;7.80;;;3.30;;
59960;SDS011;55902;-37.980;-63.602;2022-09-09T07:11:30;6.10;;;2.57;;
59960;SDS011;55902;-37.980;-63.602;2022-09-09T07:13:59;6.30;;;2.70;;
59960;SDS011;55902;-37.980;-63.602;2022-09-09T07:16:26;6.70;;;2.65;;
59960;SDS011;55902;-37.980;-63.602;2022-09-09T07:18:54;5.30;;;2.50;;
59960;SDS011;55902;-37.980;-63.602;2022-09-09T07:21:26;5.75;;;3.08;;
59960;SDS011;55902;-37.980;-63.602;2022-09-09T07:23:54;7.93;;;3.13;;
59960;SDS011;55902;-37.980;-63.602;2022-09-09T07:26:23;6.35;;;3.05;;
59960;SDS011;55902;-37.980;-63.602;2022-09-09T07:28:51;7.00;;;2.90;;
59960;SDS011;55902;-37.980;-63.602;2022-09-09T07:31:20;7.50;;;2.53;;
59960;SDS011;55902;-37.980;-63.602;2022-09-09T07:33:49;7.05;;;2.78;;
59960;SDS011;55902;-37.980;-63.602;2022-09-09T07:36:17;7.03;;;2.78;;
59960;SDS011;55902;-37.980;-63.602;2022-09-09T07:38:47;16.48;;;4.15;;
59960;SDS011;55902;-37.980;-63.602;2022-09-09T07:41:18;10.10;;;3.20;;
59960;SDS011;55902;-37.980;-63.602;2022-09-09T07:43:59;7.38;;;2.90;;
59960;SDS011;55902;-37.980;-63.602;2022-09-09T07:46:32;6.75;;;2.80;;
59960;SDS011;55902;-37.980;-63.602;2022-09-09T07:48:59;5.45;;;2.67;;
59960;SDS011;55902;-37.980;-63.602;2022-09-09T07:51:30;5.43;;;3.13;;
59960;SDS011;55902;-37.980;-63.602;2022-09-09T07:54:03;10.98;;;3.00;;
59960;SDS011;55902;-37.980;-63.602;2022-09-09T07:56:32;9.18;;;2.70;;
59960;SDS011;55902;-37.980;-63.602;2022-09-09T07:58:59;6.35;;;2.53;;
59960;SDS011;55902;-37.980;-63.602;2022-09-09T08:06:30;5.93;;;2.88;;
59960;SDS011;55902;-37.980;-63.602;2022-09-09T08:08:59;6.82;;;2.70;;
59960;SDS011;55902;-37.980;-63.602;2022-09-09T08:11:27;8.55;;;2.80;;
59960;SDS011;55902;-37.980;-63.602;2022-09-09T08:13:55;3.20;;;2.40;;
59960;SDS011;55902;-37.980;-63.602;2022-09-09T08:16:23;4.45;;;2.53;;
59960;SDS011;55902;-37.980;-63.602;2022-09-09T08:18:52;6.00;;;2.30;;
59960;SDS011;55902;-37.980;-63.602;2022-09-09T08:21:24;3.55;;;2.30;;
59960;SDS011;55902;-37.980;-63.602;2022-09-09T08:26:23;4.80;;;2.40;;
59960;SDS011;55902;-37.980;-63.602;2022-09-09T08:28:55;7.05;;;2.75;;
59960;SDS011;55902;-37.980;-63.602;2022-09-09T08:31:27;7.85;;;2.38;;
59960;SDS011;55902;-37.980;-63.602;2022-09-09T08:33:58;8.15;;;2.67;;
59960;SDS011;55902;-37.980;-63.602;2022-09-09T08:36:28;5.38;;;2.60;;
59960;SDS011;55902;-37.980;-63.602;2022-09-09T08:38:57;7.82;;;2.50;;
59960;SDS011;55902;-37.980;-63.602;2022-09-09T08:44:10;5.13;;;2.30;;
59960;SDS011;55902;-37.980;-63.602;2022-09-09T08:52:17;3.55;;;2.40;;
59960;SDS011;55902;-37.980;-63.602;2022-09-09T08:54:48;4.82;;;2.42;;
59960;SDS011;55902;-37.980;-63.602;2022-09-09T08:57:19;5.35;;;2.40;;
59960;SDS011;55902;-37.980;-63.602;2022-09-09T08:59:53;7.13;;;2.47;;
59960;SDS011;55902;-37.980;-63.602;2022-09-09T09:13:11;4.25;;;2.25;;
59960;SDS011;55902;-37.980;-63.602;2022-09-09T09:15:41;5.85;;;2.30;;
59960;SDS011;55902;-37.980;-63.602;2022-09-09T09:18:10;4.20;;;2.30;;
59960;SDS011;55902;-37.980;-63.602;2022-09-09T09:23:10;4.10;;;2.28;;
59960;SDS011;55902;-37.980;-63.602;2022-09-09T09:25:52;4.70;;;2.50;;
59960;SDS011;55902;-37.980;-63.602;2022-09-09T09:28:25;5.70;;;2.40;;
59960;SDS011;55902;-37.980;-63.602;2022-09-09T09:35:59;4.35;;;2.70;;
59960;SDS011;55902;-37.980;-63.602;2022-09-09T09:38:27;2.95;;;2.38;;
59960;SDS011;55902;-37.980;-63.602;2022-09-09T09:40:56;6.22;;;2.50;;
59960;SDS011;55902;-37.980;-63.602;2022-09-09T09:43:26;4.10;;;2.33;;
59960;SDS011;55902;-37.980;-63.602;2022-09-09T09:45:57;5.20;;;2.30;;
59960;SDS011;55902;-37.980;-63.602;2022-09-09T09:48:26;5.05;;;2.40;;
59960;SDS011;55902;-37.980;-63.602;2022-09-09T09:50:54;3.83;;;2.45;;
59960;SDS011;55902;-37.980;-63.602;2022-09-09T09:53:35;5.22;;;2.50;;
59960;SDS011;55902;-37.980;-63.602;2022-09-09T09:58:53;5.15;;;2.50;;
59960;SDS011;55902;-37.980;-63.602;2022-09-09T10:01:24;4.47;;;2.70;;
59960;SDS011;55902;-37.980;-63.602;2022-09-09T10:04:03;4.57;;;2.40;;
59960;SDS011;55902;-37.980;-63.602;2022-09-09T10:06:46;4.47;;;2.80;;
59960;SDS011;55902;-37.980;-63.602;2022-09-09T10:09:24;2.55;;;2.20;;
59960;SDS011;55902;-37.980;-63.602;2022-09-09T10:14:41;3.53;;;2.60;;
59960;SDS011;55902;-37.980;-63.602;2022-09-09T10:22:28;7.50;;;2.78;;
59960;SDS011;55902;-37.980;-63.602;2022-09-09T10:31:23;3.97;;;2.17;;
59960;SDS011;55902;-37.980;-63.602;2022-09-09T10:34:33;5.00;;;2.30;;
59960;SDS011;55902;-37.980;-63.602;2022-09-09T10:37:02;4.28;;;2.30;;
59960;SDS011;55902;-37.980;-63.602;2022-09-09T10:39:39;3.90;;;2.45;;
59960;SDS011;55902;-37.980;-63.602;2022-09-09T10:42:12;5.55;;;2.50;;
59960;SDS011;55902;-37.980;-63.602;2022-09-09T10:56:37;2.95;;;2.40;;
59960;SDS011;55902;-37.980;-63.602;2022-09-09T11:02:13;3.75;;;2.20;;
59960;SDS011;55902;-37.980;-63.602;2022-09-09T11:05:03;3.33;;;2.10;;
59960;SDS011;55902;-37.980;-63.602;2022-09-09T11:11:08;4.28;;;2.40;;
59960;SDS011;55902;-37.980;-63.602;2022-09-09T11:17:31;4.38;;;2.30;;
59960;SDS011;55902;-37.980;-63.602;2022-09-09T11:20:12;5.55;;;2.40;;
59960;SDS011;55902;-37.980;-63.602;2022-09-09T11:22:45;4.47;;;2.10;;
59960;SDS011;55902;-37.980;-63.602;2022-09-09T11:36:13;3.03;;;1.80;;
59960;SDS011;55902;-37.980;-63.602;2022-09-09T11:38:55;2.33;;;1.85;;
59960;SDS011;55902;-37.980;-63.602;2022-09-09T11:41:39;4.93;;;2.00;;
59960;SDS011;55902;-37.980;-63.602;2022-09-09T11:44:10;2.65;;;1.83;;
59960;SDS011;55902;-37.980;-63.602;2022-09-09T11:46:39;3.25;;;2.00;;
59960;SDS011;55902;-37.980;-63.602;2022-09-09T11:52:18;4.18;;;2.10;;
59960;SDS011;55902;-37.980;-63.602;2022-09-09T11:55:09;3.72;;;1.90;;
59960;SDS011;55902;-37.980;-63.602;2022-09-09T11:57:38;2.85;;;1.90;;
59960;SDS011;55902;-37.980;-63.602;2022-09-09T12:00:07;2.13;;;1.70;;
59960;SDS011;55902;-37.980;-63.602;2022-09-09T12:02:53;2.38;;;1.67;;
59960;SDS011;55902;-37.980;-63.602;2022-09-09T12:05:20;2.42;;;1.60;;
59960;SDS011;55902;-37.980;-63.602;2022-09-09T12:07:50;2.08;;;1.67;;
59960;SDS011;55902;-37.980;-63.602;2022-09-09T12:10:29;4.00;;;1.70;;
59960;SDS011;55902;-37.980;-63.602;2022-09-09T12:15:57;2.08;;;1.40;;
59960;SDS011;55902;-37.980;-63.602;2022-09-09T12:18:33;2.85;;;1.30;;
59960;SDS011;55902;-37.980;-63.602;2022-09-09T12:21:05;4.00;;;1.38;;
59960;SDS011;55902;-37.980;-63.602;2022-09-09T12:23:55;1.90;;;1.30;;
59960;SDS011;55902;-37.980;-63.602;2022-09-09T12:37:06;3.00;;;1.10;;
59960;SDS011;55902;-37.980;-63.602;2022-09-09T12:39:49;2.00;;;1.30;;
59960;SDS011;55902;-37.980;-63.602;2022-09-09T12:42:21;2.67;;;1.10;;
59960;SDS011;55902;-37.980;-63.602;2022-09-09T12:44:53;1.88;;;1.20;;
59960;SDS011;55902;-37.980;-63.602;2022-09-09T12:47:22;1.58;;;1.10;;
59960;SDS011;55902;-37.980;-63.602;2022-09-09T12:50:24;2.67;;;1.20;;
59960;SDS011;55902;-37.980;-63.602;2022-09-09T12:52:55;2.22;;;1.20;;
59960;SDS011;55902;-37.980;-63.602;2022-09-09T12:56:01;2.13;;;1.15;;
59960;SDS011;55902;-37.980;-63.602;2022-09-09T12:58:36;3.00;;;1.20;;
59960;SDS011;55902;-37.980;-63.602;2022-09-09T13:01:18;3.80;;;1.20;;
59960;SDS011;55902;-37.980;-63.602;2022-09-09T13:07:08;3.15;;;1.20;;
59960;SDS011;55902;-37.980;-63.602;2022-09-09T13:09:35;3.65;;;1.30;;
59960;SDS011;55902;-37.980;-63.602;2022-09-09T13:12:02;2.00;;;1.10;;
59960;SDS011;55902;-37.980;-63.602;2022-09-09T13:14:33;2.65;;;1.15;;
59960;SDS011;55902;-37.980;-63.602;2022-09-09T13:17:05;2.88;;;1.10;;
59960;SDS011;55902;-37.980;-63.602;2022-09-09T13:19:43;2.95;;;1.35;;
59960;SDS011;55902;-37.980;-63.602;2022-09-09T13:22:20;2.55;;;1.10;;
59960;SDS011;55902;-37.980;-63.602;2022-09-09T13:25:04;3.28;;;1.13;;
59960;SDS011;55902;-37.980;-63.602;2022-09-09T13:27:53;2.58;;;1.20;;
59960;SDS011;55902;-37.980;-63.602;2022-09-09T13:33:18;2.75;;;1.10;;
59960;SDS011;55902;-37.980;-63.602;2022-09-09T13:35:52;1.95;;;0.90;;
59960;SDS011;55902;-37.980;-63.602;2022-09-09T13:38:25;4.05;;;1.00;;
59960;SDS011;55902;-37.980;-63.602;2022-09-09T13:40:58;2.67;;;1.10;;
59960;SDS011;55902;-37.980;-63.602;2022-09-09T13:43:31;1.67;;;1.00;;
59960;SDS011;55902;-37.980;-63.602;2022-09-09T13:46:31;1.55;;;1.05;;
59960;SDS011;55902;-37.980;-63.602;2022-09-09T13:49:22;2.00;;;0.80;;
59960;SDS011;55902;-37.980;-63.602;2022-09-09T13:51:51;1.60;;;1.00;;
59960;SDS011;55902;-37.980;-63.602;2022-09-09T13:54:37;2.45;;;1.10;;
59960;SDS011;55902;-37.980;-63.602;2022-09-09T13:57:04;2.17;;;1.10;;
59960;SDS011;55902;-37.980;-63.602;2022-09-09T13:59:55;2.47;;;1.10;;
59960;SDS011;55902;-37.980;-63.602;2022-09-09T14:02:24;3.67;;;1.00;;
59960;SDS011;55902;-37.980;-63.602;2022-09-09T14:04:52;2.13;;;1.20;;
59960;SDS011;55902;-37.980;-63.602;2022-09-09T14:07:20;2.38;;;1.00;;
59960;SDS011;55902;-37.980;-63.602;2022-09-09T14:09:47;3.13;;;1.05;;
59960;SDS011;55902;-37.980;-63.602;2022-09-09T14:12:19;1.70;;;1.05;;
59960;SDS011;55902;-37.980;-63.602;2022-09-09T14:14:46;2.15;;;0.88;;
59960;SDS011;55902;-37.980;-63.602;2022-09-09T14:17:13;2.42;;;0.90;;
59960;SDS011;55902;-37.980;-63.602;2022-09-09T14:19:40;3.45;;;1.00;;
59960;SDS011;55902;-37.980;-63.602;2022-09-09T14:22:08;3.50;;;0.90;;
59960;SDS011;55902;-37.980;-63.602;2022-09-09T14:24:38;1.10;;;0.80;;
59960;SDS011;55902;-37.980;-63.602;2022-09-09T14:27:05;2.15;;;0.82;;
59960;SDS011;55902;-37.980;-63.602;2022-09-09T14:29:33;2.70;;;0.90;;
59960;SDS011;55902;-37.980;-63.602;2022-09-09T14:32:12;2.90;;;0.93;;
59960;SDS011;55902;-37.980;-63.602;2022-09-09T14:34:39;2.15;;;0.95;;
59960;SDS011;55902;-37.980;-63.602;2022-09-09T14:37:06;3.28;;;1.00;;
59960;SDS011;55902;-37.980;-63.602;2022-09-09T14:39:33;1.52;;;0.93;;
59960;SDS011;55902;-37.980;-63.602;2022-09-09T14:42:00;10.02;;;1.40;;
59960;SDS011;55902;-37.980;-63.602;2022-09-09T14:44:27;3.60;;;0.90;;
59960;SDS011;55902;-37.980;-63.602;2022-09-09T14:46:55;2.72;;;0.90;;
59960;SDS011;55902;-37.980;-63.602;2022-09-09T14:49:25;3.88;;;0.90;;
59960;SDS011;55902;-37.980;-63.602;2022-09-09T14:51:55;2.58;;;0.80;;
59960;SDS011;55902;-37.980;-63.602;2022-09-09T14:54:22;4.60;;;0.98;;
59960;SDS011;55902;-37.980;-63.602;2022-09-09T14:56:49;1.30;;;0.85;;
59960;SDS011;55902;-37.980;-63.602;2022-09-09T14:59:15;1.52;;;0.80;;
59960;SDS011;55902;-37.980;-63.602;2022-09-09T15:01:42;4.28;;;1.08;;
59960;SDS011;55902;-37.980;-63.602;2022-09-09T15:04:27;4.60;;;0.88;;
59960;SDS011;55902;-37.980;-63.602;2022-09-09T15:06:54;3.58;;;0.80;;
59960;SDS011;55902;-37.980;-63.602;2022-09-09T15:09:21;1.67;;;0.70;;
59960;SDS011;55902;-37.980;-63.602;2022-09-09T15:11:57;1.60;;;0.70;;
59960;SDS011;55902;-37.980;-63.602;2022-09-09T15:14:25;4.07;;;0.90;;
59960;SDS011;55902;-37.980;-63.602;2022-09-09T15:17:04;1.85;;;0.90;;
59960;SDS011;55902;-37.980;-63.602;2022-09-09T15:19:31;1.60;;;1.00;;
59960;SDS011;55902;-37.980;-63.602;2022-09-09T15:22:02;2.65;;;0.90;;
59960;SDS011;55902;-37.980;-63.602;2022-09-09T15:24:32;1.23;;;0.80;;
59960;SDS011;55902;-37.980;-63.602;2022-09-09T15:27:01;3.28;;;1.10;;
59960;SDS011;55902;-37.980;-63.602;2022-09-09T15:29:28;2.63;;;1.08;;
59960;SDS011;55902;-37.980;-63.602;2022-09-09T15:31:55;2.28;;;0.80;;
59960;SDS011;55902;-37.980;-63.602;2022-09-09T15:34:22;2.50;;;0.70;;
59960;SDS011;55902;-37.980;-63.602;2022-09-09T15:36:49;6.38;;;1.52;;
59960;SDS011;55902;-37.980;-63.602;2022-09-09T15:39:17;2.08;;;0.70;;
59960;SDS011;55902;-37.980;-63.602;2022-09-09T15:41:45;1.52;;;0.70;;
59960;SDS011;55902;-37.980;-63.602;2022-09-09T15:44:14;3.63;;;0.80;;
59960;SDS011;55902;-37.980;-63.602;2022-09-09T15:46:56;2.50;;;0.88;;
59960;SDS011;55902;-37.980;-63.602;2022-09-09T15:49:23;4.55;;;0.90;;
59960;SDS011;55902;-37.980;-63.602;2022-09-09T15:51:52;3.75;;;0.90;;
59960;SDS011;55902;-37.980;-63.602;2022-09-09T15:54:26;2.90;;;0.80;;
59960;SDS011;55902;-37.980;-63.602;2022-09-09T15:56:57;2.15;;;0.70;;
59960;SDS011;55902;-37.980;-63.602;2022-09-09T15:59:26;3.78;;;0.77;;
59960;SDS011;55902;-37.980;-63.602;2022-09-09T16:01:55;1.35;;;0.70;;
59960;SDS011;55902;-37.980;-63.602;2022-09-09T16:04:24;3.83;;;0.77;;
59960;SDS011;55902;-37.980;-63.602;2022-09-09T16:06:58;3.58;;;0.70;;
59960;SDS011;55902;-37.980;-63.602;2022-09-09T16:09:29;1.77;;;0.70;;
59960;SDS011;55902;-37.980;-63.602;2022-09-09T16:12:00;1.65;;;0.70;;
59960;SDS011;55902;-37.980;-63.602;2022-09-09T16:14:32;3.03;;;0.80;;
59960;SDS011;55902;-37.980;-63.602;2022-09-09T16:17:02;1.02;;;0.70;;
59960;SDS011;55902;-37.980;-63.602;2022-09-09T16:19:30;2.28;;;0.70;;
59960;SDS011;55902;-37.980;-63.602;2022-09-09T16:21:58;1.25;;;0.68;;
59960;SDS011;55902;-37.980;-63.602;2022-09-09T16:24:24;2.53;;;0.80;;
59960;SDS011;55902;-37.980;-63.602;2022-09-09T16:26:52;2.15;;;0.93;;
59960;SDS011;55902;-37.980;-63.602;2022-09-09T16:29:20;1.95;;;0.80;;
59960;SDS011;55902;-37.980;-63.602;2022-09-09T16:31:48;2.20;;;0.90;;
59960;SDS011;55902;-37.980;-63.602;2022-09-09T16:34:16;2.95;;;1.00;;
59960;SDS011;55902;-37.980;-63.602;2022-09-09T16:36:44;25.45;;;2.50;;
59960;SDS011;55902;-37.980;-63.602;2022-09-09T16:39:13;1.40;;;0.90;;
59960;SDS011;55902;-37.980;-63.602;2022-09-09T16:41:41;1.58;;;0.70;;
59960;SDS011;55902;-37.980;-63.602;2022-09-09T16:44:11;2.42;;;0.70;;
59960;SDS011;55902;-37.980;-63.602;2022-09-09T16:46:40;2.85;;;0.80;;
59960;SDS011;55902;-37.980;-63.602;2022-09-09T16:49:22;1.00;;;0.60;;
59960;SDS011;55902;-37.980;-63.602;2022-09-09T16:51:49;1.30;;;0.93;;
59960;SDS011;55902;-37.980;-63.602;2022-09-09T16:54:19;3.53;;;1.20;;
59960;SDS011;55902;-37.980;-63.602;2022-09-09T16:56:48;3.17;;;1.00;;
59960;SDS011;55902;-37.980;-63.602;2022-09-09T16:59:19;1.77;;;1.00;;
59960;SDS011;55902;-37.980;-63.602;2022-09-09T17:01:47;2.28;;;1.10;;
59960;SDS011;55902;-37.980;-63.602;2022-09-09T17:04:17;2.67;;;1.10;;
59960;SDS011;55902;-37.980;-63.602;2022-09-09T17:06:50;2.25;;;1.10;;
59960;SDS011;55902;-37.980;-63.602;2022-09-09T17:09:18;2.65;;;1.10;;
59960;SDS011;55902;-37.980;-63.602;2022-09-09T17:11:46;2.50;;;1.30;;
59960;SDS011;55902;-37.980;-63.602;2022-09-09T17:14:17;4.00;;;1.00;;
59960;SDS011;55902;-37.980;-63.602;2022-09-09T17:16:46;3.25;;;0.98;;
59960;SDS011;55902;-37.980;-63.602;2022-09-09T17:19:13;3.88;;;1.40;;
59960;SDS011;55902;-37.980;-63.602;2022-09-09T17:21:40;2.03;;;1.30;;
59960;SDS011;55902;-37.980;-63.602;2022-09-09T17:24:07;3.40;;;1.20;;
59960;SDS011;55902;-37.980;-63.602;2022-09-09T17:26:36;2.88;;;1.20;;
59960;SDS011;55902;-37.980;-63.602;2022-09-09T17:29:03;2.25;;;1.40;;
59960;SDS011;55902;-37.980;-63.602;2022-09-09T17:31:31;4.22;;;1.50;;
59960;SDS011;55902;-37.980;-63.602;2022-09-09T17:33:59;1.40;;;1.00;;
59960;SDS011;55902;-37.980;-63.602;2022-09-09T17:36:31;1.92;;;1.20;;
59960;SDS011;55902;-37.980;-63.602;2022-09-09T17:38:59;3.72;;;1.40;;
59960;SDS011;55902;-37.980;-63.602;2022-09-09T17:41:28;1.52;;;1.20;;
59960;SDS011;55902;-37.980;-63.602;2022-09-09T17:44:00;1.95;;;1.05;;
59960;SDS011;55902;-37.980;-63.602;2022-09-09T17:46:30;1.98;;;1.10;;
59960;SDS011;55902;-37.980;-63.602;2022-09-09T17:49:02;1.65;;;1.20;;
59960;SDS011;55902;-37.980;-63.602;2022-09-09T17:51:32;3.78;;;1.40;;
59960;SDS011;55902;-37.980;-63.602;2022-09-09T17:54:04;1.60;;;1.10;;
59960;SDS011;55902;-37.980;-63.602;2022-09-09T17:56:33;4.80;;;1.90;;
59960;SDS011;55902;-37.980;-63.602;2022-09-09T17:59:00;2.47;;;1.60;;
59960;SDS011;55902;-37.980;-63.602;2022-09-09T18:01:29;1.60;;;1.20;;
59960;SDS011;55902;-37.980;-63.602;2022-09-09T18:04:02;3.30;;;1.60;;
59960;SDS011;55902;-37.980;-63.602;2022-09-09T18:06:32;1.30;;;1.00;;
59960;SDS011;55902;-37.980;-63.602;2022-09-09T18:09:03;1.85;;;0.80;;
59960;SDS011;55902;-37.980;-63.602;2022-09-09T18:11:33;1.40;;;0.63;;